createdAt,value
2019-02-14T00:00:04.126Z,293.58
2019-02-14T00:01:02.122Z,293.55
2019-02-14T00:02:02.696Z,293.75
2019-02-14T00:02:55.185Z,293.69
2019-02-14T00:04:02.016Z,293.94
2019-02-14T00:04:54.904Z,293.69
2019-02-14T00:05:54.960Z,293.77
2019-02-14T00:06:54.865Z,294.22
2019-02-14T00:07:54.868Z,294.15
2019-02-14T00:08:54.877Z,293.93
2019-02-14T00:09:54.926Z,293.92
2019-02-14T00:10:54.983Z,293.85
2019-02-14T00:11:54.837Z,293.29
2019-02-14T00:12:54.884Z,293.60
2019-02-14T00:13:54.793Z,294.04
2019-02-14T00:14:54.811Z,294.00
2019-02-14T00:15:54.799Z,293.78
2019-02-14T00:16:54.782Z,293.80
2019-02-14T00:17:54.807Z,294.12
2019-02-14T00:18:54.738Z,294.31
2019-02-14T00:19:54.736Z,293.98
2019-02-14T00:20:54.794Z,294.05
2019-02-14T00:21:54.727Z,293.55
2019-02-14T00:22:54.766Z,293.62
2019-02-14T00:23:54.683Z,293.96
2019-02-14T00:24:54.677Z,293.97
2019-02-14T00:25:54.754Z,293.79
2019-02-14T00:26:54.681Z,294.01
2019-02-14T00:27:54.644Z,293.70
2019-02-14T00:28:54.705Z,293.86
2019-02-14T00:29:54.679Z,293.68
2019-02-14T00:30:55.585Z,293.97
2019-02-14T00:31:55.577Z,293.61
2019-02-14T00:32:54.599Z,293.79
2019-02-14T00:33:54.574Z,293.95
2019-02-14T00:34:54.606Z,294.01
2019-02-14T00:35:54.555Z,294.17
2019-02-14T00:36:54.619Z,293.59
2019-02-14T00:37:54.609Z,293.75
2019-02-14T00:38:54.551Z,293.81
2019-02-14T00:39:54.555Z,293.91
2019-02-14T00:40:54.549Z,293.68
2019-02-14T00:41:54.513Z,293.98
2019-02-14T00:42:54.494Z,293.99
2019-02-14T00:43:54.471Z,293.78
2019-02-14T00:44:54.470Z,294.09
2019-02-14T00:45:54.422Z,294.20
2019-02-14T00:46:54.476Z,293.92
2019-02-14T00:47:54.422Z,293.49
2019-02-14T00:48:54.418Z,293.55
2019-02-14T00:49:54.407Z,294.19
2019-02-14T00:50:54.422Z,293.81
2019-02-14T00:51:54.445Z,293.98
2019-02-14T00:52:54.399Z,294.25
2019-02-14T00:53:54.415Z,293.92
2019-02-14T00:54:54.459Z,294.07
2019-02-14T00:55:54.341Z,294.11
2019-02-14T00:56:54.414Z,293.96
2019-02-14T00:57:54.341Z,293.94
2019-02-14T00:58:54.305Z,293.86
2019-02-14T00:59:54.303Z,293.71
2019-02-14T01:01:02.480Z,293.82
2019-02-14T01:02:02.605Z,293.52
2019-02-14T01:03:02.464Z,293.98
2019-02-14T01:03:54.487Z,294.01
2019-02-14T01:04:54.391Z,293.87
2019-02-14T01:06:03.285Z,293.84
2019-02-14T01:07:02.956Z,294.08
2019-02-14T01:08:04.425Z,293.37
2019-02-14T01:09:02.810Z,293.82
2019-02-14T01:09:54.295Z,293.99
2019-02-14T01:10:54.465Z,294.27
2019-02-14T01:11:54.180Z,294.08
2019-02-14T01:12:55.670Z,293.93
2019-02-14T01:13:54.138Z,293.79
2019-02-14T01:14:54.143Z,294.15
2019-02-14T01:15:54.111Z,293.96
2019-02-14T01:16:54.141Z,293.59
2019-02-14T01:18:01.280Z,294.08
2019-02-14T01:19:03.816Z,293.75
2019-02-14T01:19:54.195Z,294.17
2019-02-14T01:20:54.215Z,293.51
2019-02-14T01:21:54.114Z,293.68
2019-02-14T01:22:54.030Z,293.83
2019-02-14T01:23:54.060Z,293.98
2019-02-14T01:24:54.007Z,294.21
2019-02-14T01:25:54.086Z,293.92
2019-02-14T01:26:54.100Z,293.56
2019-02-14T01:27:54.725Z,293.94
2019-02-14T01:28:54.057Z,293.57
2019-02-14T01:29:53.970Z,293.78
2019-02-14T01:30:54.004Z,293.93
2019-02-14T01:31:54.800Z,293.67
2019-02-14T01:32:53.918Z,293.96
2019-02-14T01:33:53.896Z,293.63
2019-02-14T01:34:53.911Z,293.82
2019-02-14T01:35:53.935Z,293.73
2019-02-14T01:36:53.899Z,293.51
2019-02-14T01:37:53.916Z,293.75
2019-02-14T01:38:53.939Z,294.05
2019-02-14T01:39:53.849Z,293.72
2019-02-14T01:40:53.896Z,293.71
2019-02-14T01:41:53.835Z,293.38
2019-02-14T01:42:53.944Z,293.87
2019-02-14T01:43:53.852Z,294.01
2019-02-14T01:44:53.871Z,293.73
2019-02-14T01:45:53.793Z,293.54
2019-02-14T01:46:53.874Z,293.12
2019-02-14T01:47:53.796Z,293.88
2019-02-14T01:48:53.810Z,294.03
2019-02-14T01:49:53.748Z,293.60
2019-02-14T01:50:53.765Z,293.93
2019-02-14T01:51:53.779Z,293.43
2019-02-14T01:52:53.730Z,294.01
2019-02-14T01:53:53.718Z,293.78
2019-02-14T01:54:53.740Z,293.65
2019-02-14T01:55:53.694Z,293.84
2019-02-14T01:57:01.910Z,293.62
2019-02-14T01:58:01.924Z,294.00
2019-02-14T01:59:00.849Z,293.79
2019-02-14T02:00:00.815Z,293.95
2019-02-14T02:01:00.845Z,294.39
2019-02-14T02:02:02.329Z,293.49
2019-02-14T02:03:01.135Z,293.79
2019-02-14T02:04:00.760Z,293.67
2019-02-14T02:05:01.687Z,293.50
2019-02-14T02:08:26.971Z,293.00
2019-02-14T02:09:34.894Z,293.66
2019-02-14T02:10:35.762Z,293.62
2019-02-14T02:11:34.795Z,293.81
2019-02-14T02:12:26.830Z,293.71
2019-02-14T02:13:26.760Z,293.73
2019-02-14T02:14:26.779Z,293.87
2019-02-14T02:15:26.853Z,293.78
2019-02-14T02:16:26.707Z,293.76
2019-02-14T02:17:26.725Z,293.83
2019-02-14T02:18:26.689Z,293.96
2019-02-14T02:19:26.655Z,293.55
2019-02-14T02:20:33.225Z,293.50
2019-02-14T02:21:27.695Z,293.42
2019-02-14T02:22:26.641Z,293.70
2019-02-14T02:23:26.710Z,294.29
2019-02-14T02:24:26.677Z,293.90
2019-02-14T02:25:26.646Z,293.71
2019-02-14T02:26:26.666Z,294.17
2019-02-14T02:27:27.214Z,294.07
2019-02-14T02:28:27.660Z,293.58
2019-02-14T02:29:33.760Z,293.64
2019-02-14T02:30:34.706Z,293.95
2019-02-14T02:31:26.696Z,293.74
2019-02-14T02:32:26.630Z,293.95
2019-02-14T02:33:26.548Z,293.83
2019-02-14T02:34:26.649Z,293.91
2019-02-14T02:35:26.473Z,293.69
2019-02-14T02:36:26.490Z,293.56
2019-02-14T02:37:26.476Z,293.83
2019-02-14T02:38:26.532Z,293.81
2019-02-14T02:39:26.505Z,293.69
2019-02-14T02:40:26.530Z,294.24
2019-02-14T02:41:26.492Z,293.70
2019-02-14T02:42:26.464Z,293.41
2019-02-14T02:43:26.586Z,294.09
2019-02-14T02:44:27.237Z,293.45
2019-02-14T02:45:26.480Z,294.30
2019-02-14T02:46:26.449Z,293.85
2019-02-14T02:47:26.404Z,293.99
2019-02-14T02:48:26.509Z,293.70
2019-02-14T02:49:35.716Z,293.64
2019-02-14T02:50:35.203Z,294.25
2019-02-14T02:51:34.376Z,293.72
2019-02-14T02:52:35.446Z,293.72
2019-02-14T02:53:26.480Z,293.80
2019-02-14T02:54:26.502Z,293.58
2019-02-14T02:55:26.312Z,294.02
2019-02-14T02:56:26.409Z,293.80
2019-02-14T02:57:26.328Z,293.75
2019-02-14T02:58:26.284Z,294.35
2019-02-14T02:59:26.266Z,294.02
2019-02-14T03:00:26.892Z,293.66
2019-02-14T03:01:26.247Z,294.10
2019-02-14T03:02:26.263Z,293.62
2019-02-14T03:03:26.299Z,293.68
2019-02-14T03:04:26.258Z,293.98
2019-02-14T03:05:26.232Z,293.58
2019-02-14T03:06:26.234Z,293.74
2019-02-14T03:07:26.205Z,293.95
2019-02-14T03:08:26.207Z,293.93
2019-02-14T03:09:26.311Z,293.55
2019-02-14T03:10:26.129Z,293.82
2019-02-14T03:11:26.138Z,293.91
2019-02-14T03:12:26.111Z,293.97
2019-02-14T03:13:26.173Z,293.85
2019-02-14T03:14:26.078Z,293.78
2019-02-14T03:15:26.095Z,293.75
2019-02-14T03:16:26.094Z,293.77
2019-02-14T03:17:26.092Z,294.08
2019-02-14T03:18:26.119Z,293.85
2019-02-14T03:19:26.021Z,294.00
2019-02-14T03:20:26.013Z,293.92
2019-02-14T03:21:25.992Z,293.81
2019-02-14T03:22:26.002Z,293.57
2019-02-14T03:23:25.970Z,293.50
2019-02-14T03:24:25.992Z,293.89
2019-02-14T03:25:25.966Z,293.58
2019-02-14T03:26:25.948Z,293.62
2019-02-14T03:27:25.931Z,293.68
2019-02-14T03:28:25.914Z,293.88
2019-02-14T03:29:25.921Z,293.43
2019-02-14T03:30:25.908Z,293.79
2019-02-14T03:31:25.882Z,294.06
2019-02-14T03:32:25.902Z,293.85
2019-02-14T03:33:25.882Z,293.60
2019-02-14T03:34:25.873Z,293.72
2019-02-14T03:35:25.854Z,293.96
2019-02-14T03:36:25.842Z,294.10
2019-02-14T03:37:25.835Z,293.85
2019-02-14T03:38:25.812Z,293.75
2019-02-14T03:39:25.828Z,293.35
2019-02-14T03:40:25.823Z,293.75
2019-02-14T03:41:25.779Z,293.47
2019-02-14T03:42:25.789Z,293.82
2019-02-14T03:43:25.761Z,294.10
2019-02-14T03:44:25.770Z,293.62
2019-02-14T03:45:25.772Z,293.71
2019-02-14T03:46:25.723Z,293.50
2019-02-14T03:47:25.741Z,293.96
2019-02-14T03:48:32.899Z,293.37
2019-02-14T03:49:25.872Z,293.47
2019-02-14T03:50:25.761Z,293.44
2019-02-14T03:51:26.729Z,293.60
2019-02-14T03:52:25.659Z,293.58
2019-02-14T03:53:25.647Z,293.59
2019-02-14T03:54:25.668Z,293.60
2019-02-14T03:55:25.646Z,293.53
2019-02-14T03:56:25.611Z,293.35
2019-02-14T03:57:25.615Z,293.13
2019-02-14T03:58:26.368Z,293.58
2019-02-14T03:59:26.365Z,293.55
2019-02-14T04:00:25.575Z,293.48
2019-02-14T04:01:25.565Z,293.46
2019-02-14T04:02:25.555Z,293.98
2019-02-14T04:03:25.538Z,293.74
2019-02-14T04:04:25.550Z,293.71
2019-02-14T04:05:25.544Z,294.08
2019-02-14T04:06:27.577Z,293.55
2019-02-14T04:07:25.507Z,294.22
2019-02-14T04:08:25.475Z,293.76
2019-02-14T04:09:25.521Z,293.37
2019-02-14T04:10:25.466Z,293.30
2019-02-14T04:11:25.470Z,293.37
2019-02-14T04:12:25.448Z,293.50
2019-02-14T04:13:25.462Z,293.47
2019-02-14T04:14:25.451Z,293.44
2019-02-14T04:15:25.403Z,293.60
2019-02-14T04:16:25.422Z,293.31
2019-02-14T04:17:25.397Z,293.82
2019-02-14T04:18:25.387Z,293.36
2019-02-14T04:19:25.374Z,293.75
2019-02-14T04:20:25.422Z,294.22
2019-02-14T04:21:25.368Z,293.61
2019-02-14T04:22:25.361Z,293.56
2019-02-14T04:23:25.342Z,294.02
2019-02-14T04:24:25.327Z,293.62
2019-02-14T04:25:25.351Z,293.72
2019-02-14T04:26:25.291Z,294.27
2019-02-14T04:27:25.280Z,293.52
2019-02-14T04:28:33.900Z,293.55
2019-02-14T04:29:34.049Z,293.25
2019-02-14T04:30:25.322Z,293.68
2019-02-14T04:31:34.037Z,293.80
2019-02-14T04:32:25.279Z,293.68
2019-02-14T04:33:25.319Z,293.80
2019-02-14T04:34:25.219Z,293.37
2019-02-14T04:35:25.212Z,293.63
2019-02-14T04:36:25.182Z,293.34
2019-02-14T04:37:25.167Z,293.65
2019-02-14T04:38:25.197Z,293.49
2019-02-14T04:39:25.992Z,293.57
2019-02-14T04:40:33.265Z,294.02
2019-02-14T04:41:26.139Z,293.77
2019-02-14T04:42:25.104Z,293.73
2019-02-14T04:43:25.148Z,293.99
2019-02-14T04:44:25.119Z,293.81
2019-02-14T04:45:25.140Z,293.89
2019-02-14T04:46:25.089Z,293.81
2019-02-14T04:47:25.081Z,293.62
2019-02-14T04:48:25.088Z,293.77
2019-02-14T04:49:25.040Z,293.33
2019-02-14T04:50:25.472Z,293.82
2019-02-14T04:51:25.033Z,293.69
2019-02-14T04:52:25.048Z,294.18
2019-02-14T04:53:25.014Z,293.61
2019-02-14T04:54:25.031Z,293.79
2019-02-14T04:55:24.983Z,293.62
2019-02-14T04:56:24.981Z,293.50
2019-02-14T04:57:32.028Z,293.99
2019-02-14T04:58:32.043Z,293.75
2019-02-14T04:59:33.081Z,293.76
2019-02-14T05:00:25.225Z,293.83
2019-02-14T05:01:24.997Z,294.01
2019-02-14T05:02:24.926Z,293.79
2019-02-14T05:03:24.922Z,294.47
2019-02-14T05:04:24.891Z,293.57
2019-02-14T05:05:24.894Z,293.81
2019-02-14T05:06:24.862Z,293.96
2019-02-14T05:07:24.858Z,294.00
2019-02-14T05:08:24.850Z,293.72
2019-02-14T05:09:24.842Z,293.53
2019-02-14T05:10:24.847Z,293.64
2019-02-14T05:11:24.815Z,293.86
2019-02-14T05:12:26.188Z,293.75
2019-02-14T05:13:24.815Z,293.72
2019-02-14T05:14:24.781Z,293.72
2019-02-14T05:15:24.784Z,293.83
2019-02-14T05:16:24.808Z,293.68
2019-02-14T05:17:24.727Z,293.99
2019-02-14T05:18:24.788Z,293.77
2019-02-14T05:19:24.733Z,293.80
2019-02-14T05:20:24.767Z,293.31
2019-02-14T05:21:24.721Z,293.95
2019-02-14T05:22:24.698Z,293.81
2019-02-14T05:23:24.670Z,293.91
2019-02-14T05:24:24.657Z,293.83
2019-02-14T05:25:24.661Z,293.90
2019-02-14T05:26:24.651Z,293.77
2019-02-14T05:27:24.642Z,293.69
2019-02-14T05:28:24.643Z,293.99
2019-02-14T05:29:24.624Z,293.84
2019-02-14T05:30:24.599Z,294.11
2019-02-14T05:31:24.654Z,293.83
2019-02-14T05:32:24.601Z,293.81
2019-02-14T05:33:25.562Z,293.51
2019-02-14T05:34:24.571Z,293.96
2019-02-14T05:35:24.566Z,293.80
2019-02-14T05:36:24.578Z,293.77
2019-02-14T05:37:24.527Z,293.91
2019-02-14T05:38:24.539Z,294.18
2019-02-14T05:39:24.529Z,293.24
2019-02-14T05:40:24.503Z,294.17
2019-02-14T05:41:31.776Z,293.79
2019-02-14T05:42:31.620Z,293.71
2019-02-14T05:43:32.674Z,293.83
2019-02-14T05:44:32.607Z,294.00
2019-02-14T05:45:31.561Z,293.70
2019-02-14T05:46:32.496Z,293.71
2019-02-14T05:47:33.225Z,293.87
2019-02-14T05:48:31.539Z,293.53
2019-02-14T05:49:32.944Z,293.73
2019-02-14T05:50:32.502Z,293.70
2019-02-14T05:51:24.495Z,293.40
2019-02-14T05:53:35.093Z,292.92
2019-02-14T05:54:43.413Z,294.19
2019-02-14T05:55:43.035Z,293.84
2019-02-14T05:56:42.318Z,293.61
2019-02-14T05:57:42.968Z,293.97
2019-02-14T05:58:43.969Z,293.73
2019-02-14T05:59:35.010Z,293.60
2019-02-14T06:00:43.032Z,293.66
2019-02-14T06:01:35.209Z,293.70
2019-02-14T06:02:34.968Z,293.79
2019-02-14T06:03:34.923Z,293.73
2019-02-14T06:04:34.928Z,293.82
2019-02-14T06:05:34.885Z,293.46
2019-02-14T06:06:34.903Z,294.43
2019-02-14T06:07:34.877Z,294.14
2019-02-14T06:08:34.875Z,293.77
2019-02-14T06:09:34.839Z,293.85
2019-02-14T06:10:34.829Z,293.56
2019-02-14T06:11:34.859Z,293.83
2019-02-14T06:12:34.859Z,293.88
2019-02-14T06:13:34.796Z,293.29
2019-02-14T06:14:34.830Z,293.78
2019-02-14T06:15:34.785Z,293.68
2019-02-14T06:16:34.778Z,293.71
2019-02-14T06:17:34.779Z,294.26
2019-02-14T06:18:34.741Z,293.49
2019-02-14T06:19:34.734Z,293.62
2019-02-14T06:20:34.724Z,293.87
2019-02-14T06:21:34.730Z,294.45
2019-02-14T06:22:35.016Z,294.18
2019-02-14T06:23:34.691Z,293.76
2019-02-14T06:24:34.700Z,293.71
2019-02-14T06:25:34.676Z,293.95
2019-02-14T06:26:34.660Z,293.78
2019-02-14T06:27:34.682Z,293.79
2019-02-14T06:28:34.636Z,293.28
2019-02-14T06:29:34.658Z,293.89
2019-02-14T06:30:34.629Z,293.55
2019-02-14T06:31:34.603Z,293.94
2019-02-14T06:32:34.630Z,293.71
2019-02-14T06:33:34.597Z,293.78
2019-02-14T06:34:34.556Z,293.85
2019-02-14T06:35:34.602Z,293.72
2019-02-14T06:36:35.494Z,293.69
2019-02-14T06:37:34.605Z,293.75
2019-02-14T06:38:34.540Z,293.59
2019-02-14T06:39:34.549Z,293.31
2019-02-14T06:40:34.593Z,293.69
2019-02-14T06:41:34.535Z,293.74
2019-02-14T06:42:35.541Z,293.33
2019-02-14T06:43:34.503Z,293.85
2019-02-14T06:44:34.477Z,293.51
2019-02-14T06:45:34.477Z,293.61
2019-02-14T06:46:34.483Z,293.73
2019-02-14T06:47:34.487Z,293.85
2019-02-14T06:48:34.422Z,293.66
2019-02-14T06:49:34.437Z,293.58
2019-02-14T06:50:34.970Z,293.90
2019-02-14T06:51:34.417Z,293.53
2019-02-14T06:52:34.404Z,293.95
2019-02-14T06:53:34.364Z,293.28
2019-02-14T06:54:34.371Z,293.63
2019-02-14T06:55:42.479Z,294.03
2019-02-14T06:56:34.431Z,293.46
2019-02-14T06:57:34.430Z,294.18
2019-02-14T06:58:34.392Z,293.89
2019-02-14T06:59:34.322Z,293.48
2019-02-14T07:00:34.297Z,293.69
2019-02-14T07:01:34.288Z,293.48
2019-02-14T07:02:34.323Z,293.78
2019-02-14T07:03:34.274Z,294.01
2019-02-14T07:04:34.268Z,293.32
2019-02-14T07:05:34.265Z,293.46
2019-02-14T07:06:34.219Z,293.37
2019-02-14T07:07:34.216Z,293.91
2019-02-14T07:08:34.232Z,293.72
2019-02-14T07:09:34.214Z,293.44
2019-02-14T07:10:34.182Z,294.02
2019-02-14T07:11:34.176Z,293.61
2019-02-14T07:12:34.196Z,294.10
2019-02-14T07:13:34.202Z,293.96
2019-02-14T07:14:34.160Z,293.82
2019-02-14T07:15:34.131Z,293.86
2019-02-14T07:16:34.208Z,294.06
2019-02-14T07:17:34.100Z,293.75
2019-02-14T07:18:34.136Z,293.69
2019-02-14T07:19:34.100Z,293.84
2019-02-14T07:20:34.105Z,293.63
2019-02-14T07:21:34.060Z,293.28
2019-02-14T07:22:34.060Z,293.79
2019-02-14T07:23:34.068Z,293.37
2019-02-14T07:24:34.077Z,293.72
2019-02-14T07:25:34.032Z,293.51
2019-02-14T07:26:34.039Z,294.00
2019-02-14T07:27:34.012Z,293.66
2019-02-14T07:28:34.532Z,293.37
2019-02-14T07:29:33.997Z,293.51
2019-02-14T07:30:33.971Z,293.76
2019-02-14T07:31:33.963Z,293.94
2019-02-14T07:32:33.977Z,293.94
2019-02-14T07:33:33.958Z,294.06
2019-02-14T07:34:33.926Z,293.71
2019-02-14T07:35:33.961Z,294.10
2019-02-14T07:36:33.958Z,293.74
2019-02-14T07:37:33.915Z,293.50
2019-02-14T07:38:34.035Z,293.37
2019-02-14T07:39:42.747Z,293.72
2019-02-14T07:40:40.988Z,293.81
2019-02-14T07:41:41.925Z,293.89
2019-02-14T07:43:54.845Z,292.44
2019-02-14T07:45:04.320Z,293.98
2019-02-14T07:46:03.461Z,293.72
2019-02-14T07:47:01.951Z,293.75
2019-02-14T07:48:01.834Z,293.55
2019-02-14T07:49:01.936Z,293.77
2019-02-14T07:49:54.726Z,294.25
2019-02-14T07:50:54.785Z,293.46
2019-02-14T07:51:54.649Z,293.87
2019-02-14T07:52:56.416Z,293.91
2019-02-14T07:53:54.658Z,293.42
2019-02-14T07:54:54.634Z,293.78
2019-02-14T07:55:54.591Z,293.52
2019-02-14T07:56:54.619Z,293.83
2019-02-14T07:57:54.586Z,293.96
2019-02-14T07:58:54.601Z,293.76
2019-02-14T07:59:54.550Z,294.05
2019-02-14T08:00:54.543Z,293.72
2019-02-14T08:01:54.546Z,293.86
2019-02-14T08:02:56.350Z,293.63
2019-02-14T08:03:54.527Z,294.21
2019-02-14T08:04:54.503Z,294.18
2019-02-14T08:05:54.520Z,293.65
2019-02-14T08:06:54.468Z,293.50
2019-02-14T08:07:54.474Z,294.09
2019-02-14T08:08:54.502Z,294.19
2019-02-14T08:09:54.462Z,293.72
2019-02-14T08:10:54.469Z,294.10
2019-02-14T08:11:54.455Z,293.88
2019-02-14T08:12:54.436Z,293.56
2019-02-14T08:13:54.427Z,293.68
2019-02-14T08:14:54.404Z,293.63
2019-02-14T08:15:54.448Z,293.93
2019-02-14T08:16:54.406Z,293.86
2019-02-14T08:17:54.415Z,293.88
2019-02-14T08:18:54.401Z,293.76
2019-02-14T08:19:54.332Z,293.83
2019-02-14T08:20:54.360Z,293.98
2019-02-14T08:21:54.375Z,293.69
2019-02-14T08:22:54.327Z,293.83
2019-02-14T08:23:54.298Z,293.81
2019-02-14T08:24:54.316Z,293.92
2019-02-14T08:25:54.326Z,293.86
2019-02-14T08:26:54.260Z,293.96
2019-02-14T08:27:54.262Z,293.68
2019-02-14T08:28:54.269Z,293.80
2019-02-14T08:30:04.738Z,293.22
2019-02-14T08:34:25.219Z,293.17
2019-02-14T08:35:25.148Z,293.83
2019-02-14T08:36:25.184Z,293.73
2019-02-14T08:37:25.086Z,293.68
2019-02-14T08:38:25.157Z,293.46
2019-02-14T08:39:25.074Z,294.08
2019-02-14T08:40:25.074Z,293.95
2019-02-14T08:41:25.025Z,293.73
2019-02-14T08:42:25.004Z,293.96
2019-02-14T08:43:24.991Z,293.63
2019-02-14T08:44:25.005Z,293.95
2019-02-14T08:45:25.002Z,293.89
2019-02-14T08:46:24.989Z,293.56
2019-02-14T08:47:24.932Z,293.95
2019-02-14T08:48:24.937Z,293.51
2019-02-14T08:49:24.939Z,293.98
2019-02-14T08:50:24.942Z,293.99
2019-02-14T08:51:34.794Z,293.92
2019-02-14T08:52:35.900Z,293.65
2019-02-14T08:53:33.402Z,294.06
2019-02-14T08:54:33.551Z,293.87
2019-02-14T08:55:32.820Z,293.95
2019-02-14T08:56:25.109Z,293.95
2019-02-14T08:57:24.894Z,294.05
2019-02-14T08:58:31.969Z,293.69
2019-02-14T08:59:33.489Z,293.80
2019-02-14T09:00:25.068Z,293.72
2019-02-14T09:01:25.041Z,293.73
2019-02-14T09:02:36.740Z,293.51
2019-02-14T09:03:24.924Z,293.95
2019-02-14T09:04:33.028Z,294.11
2019-02-14T09:05:24.925Z,293.72
2019-02-14T09:06:24.803Z,294.16
2019-02-14T09:07:24.758Z,293.76
2019-02-14T09:08:24.801Z,293.97
2019-02-14T09:09:24.806Z,293.95
2019-02-14T09:10:24.757Z,294.20
2019-02-14T09:11:25.842Z,293.79
2019-02-14T09:16:30.637Z,293.99
2019-02-14T09:20:04.255Z,294.06
2019-02-14T09:21:15.447Z,293.60
2019-02-14T09:22:11.161Z,293.74
2019-02-14T09:23:18.748Z,293.99
2019-02-14T09:24:04.366Z,293.80
2019-02-14T09:25:12.247Z,294.17
2019-02-14T09:26:05.158Z,294.02
2019-02-14T09:27:03.987Z,293.91
2019-02-14T09:28:03.882Z,294.29
2019-02-14T09:29:03.853Z,294.18
2019-02-14T09:35:01.789Z,293.57
2019-02-14T09:38:30.926Z,293.27
2019-02-14T09:39:42.199Z,293.82
2019-02-14T09:40:38.585Z,293.63
2019-02-14T09:41:41.406Z,294.34
2019-02-14T09:44:59.775Z,293.08
2019-02-14T09:46:07.939Z,293.98
2019-02-14T09:48:28.436Z,293.40
2019-02-14T09:49:28.411Z,293.96
2019-02-14T09:53:07.761Z,292.97
2019-02-14T09:55:25.083Z,293.33
2019-02-14T09:56:24.610Z,293.93
2019-02-14T09:57:25.194Z,293.69
2019-02-14T09:58:25.424Z,293.82
2019-02-14T10:00:42.667Z,293.22
2019-02-14T10:01:42.023Z,293.65
2019-02-14T10:02:41.961Z,294.23
2019-02-14T10:03:41.813Z,293.93
2019-02-14T10:04:42.856Z,293.50
2019-02-14T10:05:41.837Z,293.54
2019-02-14T10:06:41.797Z,293.50
2019-02-14T10:09:00.721Z,293.00
2019-02-14T10:09:59.915Z,293.33
2019-02-14T10:10:59.940Z,293.72
2019-02-14T10:11:59.851Z,293.23
2019-02-14T10:13:00.047Z,293.72
2019-02-14T10:13:59.797Z,293.57
2019-02-14T10:14:59.785Z,293.28
2019-02-14T10:15:59.784Z,293.80
2019-02-14T10:16:59.763Z,294.25
2019-02-14T10:17:59.750Z,293.56
2019-02-14T10:18:59.738Z,293.89
2019-02-14T10:20:00.714Z,293.88
2019-02-14T10:20:59.751Z,293.70
2019-02-14T10:21:59.701Z,293.93
2019-02-14T10:22:59.712Z,293.72
2019-02-14T10:23:59.703Z,293.93
2019-02-14T10:24:59.678Z,293.75
2019-02-14T10:25:59.688Z,294.21
2019-02-14T10:26:59.666Z,294.06
2019-02-14T10:28:01.204Z,293.46
2019-02-14T10:28:59.723Z,293.24
2019-02-14T10:29:59.625Z,293.34
2019-02-14T10:30:59.648Z,293.52
2019-02-14T10:31:59.618Z,293.46
2019-02-14T10:32:59.641Z,293.24
2019-02-14T10:33:59.606Z,293.46
2019-02-14T10:34:59.582Z,293.38
2019-02-14T10:35:59.581Z,293.42
2019-02-14T10:36:59.543Z,293.86
2019-02-14T10:38:00.191Z,293.65
2019-02-14T10:38:59.581Z,293.40
2019-02-14T10:39:59.538Z,293.32
2019-02-14T10:40:59.614Z,292.84
2019-02-14T10:41:59.532Z,293.66
2019-02-14T10:42:59.504Z,293.10
2019-02-14T10:43:59.506Z,293.63
2019-02-14T10:44:59.502Z,293.68
2019-02-14T10:45:59.471Z,293.42
2019-02-14T10:46:59.467Z,294.00
2019-02-14T10:47:59.431Z,292.81
2019-02-14T10:48:59.407Z,293.84
2019-02-14T10:49:59.573Z,293.28
2019-02-14T10:51:08.099Z,294.06
2019-02-14T10:52:07.610Z,293.52
2019-02-14T10:52:59.803Z,293.32
2019-02-14T10:53:59.524Z,293.31
2019-02-14T10:54:59.408Z,293.60
2019-02-14T10:55:59.490Z,293.41
2019-02-14T10:56:59.400Z,292.92
2019-02-14T10:58:10.587Z,293.31
2019-02-14T10:59:07.634Z,293.39
2019-02-14T11:00:07.653Z,293.36
2019-02-14T11:00:59.623Z,293.11
2019-02-14T11:01:59.903Z,293.74
2019-02-14T11:02:59.376Z,293.29
2019-02-14T11:03:59.326Z,293.50
2019-02-14T11:04:59.242Z,293.33
2019-02-14T11:05:59.245Z,293.33
2019-02-14T11:06:59.811Z,293.57
2019-02-14T11:07:59.211Z,293.85
2019-02-14T11:08:59.202Z,293.45
2019-02-14T11:09:59.210Z,293.34
2019-02-14T11:10:59.313Z,293.44
2019-02-14T11:11:59.183Z,293.88
2019-02-14T11:13:07.991Z,294.15
2019-02-14T11:13:59.176Z,293.75
2019-02-14T11:14:59.127Z,293.40
2019-02-14T11:15:59.099Z,293.49
2019-02-14T11:16:59.114Z,293.53
2019-02-14T11:17:59.848Z,293.71
2019-02-14T11:19:06.175Z,294.14
2019-02-14T11:20:06.144Z,293.74
2019-02-14T11:21:07.925Z,293.81
2019-02-14T11:23:10.740Z,293.31
2019-02-14T11:24:10.690Z,293.85
2019-02-14T11:25:10.667Z,293.91
2019-02-14T11:26:10.689Z,294.63
2019-02-14T11:27:11.532Z,294.66
2019-02-14T11:28:19.613Z,294.48
2019-02-14T11:29:10.606Z,294.75
2019-02-14T11:30:10.616Z,294.49
2019-02-14T11:31:10.633Z,294.67
2019-02-14T11:33:28.003Z,294.12
2019-02-14T11:34:28.047Z,294.97
2019-02-14T11:35:28.061Z,294.38
2019-02-14T11:36:27.955Z,294.66
2019-02-14T11:37:27.958Z,294.58
2019-02-14T11:38:27.924Z,294.60
2019-02-14T11:39:27.915Z,294.09
2019-02-14T11:40:27.943Z,293.82
2019-02-14T11:41:27.910Z,294.08
2019-02-14T11:42:30.045Z,294.04
2019-02-14T11:43:27.898Z,293.91
2019-02-14T11:44:27.870Z,294.02
2019-02-14T11:45:27.841Z,293.31
2019-02-14T11:46:27.863Z,293.49
2019-02-14T11:47:27.887Z,293.72
2019-02-14T11:48:27.847Z,293.20
2019-02-14T11:49:27.818Z,292.81
2019-02-14T11:50:27.826Z,293.53
2019-02-14T11:51:27.800Z,292.89
2019-02-14T11:52:27.783Z,293.58
2019-02-14T11:53:29.358Z,292.89
2019-02-14T11:54:27.762Z,293.20
2019-02-14T11:55:27.745Z,293.23
2019-02-14T11:56:27.782Z,293.16
2019-02-14T11:57:27.741Z,293.63
2019-02-14T11:58:27.768Z,293.12
2019-02-14T11:59:27.737Z,294.13
2019-02-14T12:00:27.765Z,293.95
2019-02-14T12:01:27.738Z,293.57
2019-02-14T12:02:27.697Z,293.98
2019-02-14T12:03:27.718Z,294.24
2019-02-14T12:04:27.657Z,293.96
2019-02-14T12:05:27.630Z,294.09
2019-02-14T12:06:27.700Z,294.37
2019-02-14T12:07:27.694Z,294.15
2019-02-14T12:08:27.660Z,294.32
2019-02-14T12:09:27.632Z,294.37
2019-02-14T12:10:27.718Z,294.58
2019-02-14T12:11:27.585Z,293.87
2019-02-14T12:12:28.524Z,294.60
2019-02-14T12:13:27.560Z,294.78
2019-02-14T12:14:27.571Z,294.15
2019-02-14T12:15:28.480Z,294.65
2019-02-14T12:16:27.537Z,294.40
2019-02-14T12:17:27.557Z,294.66
2019-02-14T12:18:27.501Z,294.86
2019-02-14T12:19:27.510Z,294.96
2019-02-14T12:20:28.012Z,294.66
2019-02-14T12:21:27.900Z,294.44
2019-02-14T12:22:27.513Z,295.07
2019-02-14T12:23:27.607Z,295.05
2019-02-14T12:24:27.596Z,295.38
2019-02-14T12:25:27.505Z,294.82
2019-02-14T12:26:29.346Z,294.84
2019-02-14T12:27:30.524Z,295.28
2019-02-14T12:28:27.458Z,295.43
2019-02-14T12:29:27.914Z,294.86
2019-02-14T12:30:27.373Z,295.41
2019-02-14T12:31:28.075Z,295.18
2019-02-14T12:32:27.582Z,295.55
2019-02-14T12:33:27.383Z,295.68
2019-02-14T12:34:28.143Z,295.45
2019-02-14T12:35:27.344Z,295.34
2019-02-14T12:36:27.329Z,296.07
2019-02-14T12:37:27.368Z,295.37
2019-02-14T12:38:27.316Z,295.41
2019-02-14T12:39:27.325Z,295.61
2019-02-14T12:40:27.313Z,295.84
2019-02-14T12:41:27.244Z,295.45
2019-02-14T12:42:27.239Z,295.34
2019-02-14T12:43:27.251Z,295.30
2019-02-14T12:44:27.230Z,295.41
2019-02-14T12:45:27.270Z,295.17
2019-02-14T12:46:27.217Z,294.52
2019-02-14T12:47:27.237Z,294.67
2019-02-14T12:48:27.252Z,294.89
2019-02-14T12:49:27.174Z,295.00
2019-02-14T12:50:27.183Z,293.55
2019-02-14T12:51:27.188Z,292.70
2019-02-14T12:52:27.150Z,292.72
2019-02-14T12:53:27.172Z,292.47
2019-02-14T12:54:27.176Z,292.56
2019-02-14T12:55:27.148Z,292.21
2019-02-14T12:56:27.125Z,292.38
2019-02-14T12:57:27.177Z,292.58
2019-02-14T12:58:27.108Z,292.52
2019-02-14T12:59:27.052Z,292.34
2019-02-14T13:00:27.057Z,292.35
2019-02-14T13:01:27.030Z,292.28
2019-02-14T13:02:27.049Z,292.42
2019-02-14T13:03:27.064Z,292.24